Time;durP1;ratioP1;P1;durP2;ratioP2;P2;SDS_P1;SDS_P2;PMS_P1;PMS_P2;Temp;Humidity;BMP_temperature;BMP_pressure;BME280_temperature;BME280_humidity;BME280_pressure;Samples;Min_cycle;Max_cycle;Signal;HPM_P1;HPM_P2
2022/04/09 00:00:14;;;;;;;15.75;5.60;;;;;;;3.46;84.97;100355.00;5025070;28;20017;-69
2022/04/09 00:02:40;;;;;;;22.05;4.50;;;;;;;3.47;85.04;100362.09;5040399;28;20111;-69
2022/04/09 00:05:07;;;;;;;24.60;5.00;;;;;;;3.45;85.49;100364.19;5044469;28;20035;-69
2022/04/09 00:07:32;;;;;;;19.23;4.45;;;;;;;3.46;85.69;100376.72;5044525;28;20021;-69
2022/04/09 00:09:57;;;;;;;19.67;3.70;;;;;;;3.44;85.72;100376.06;5045779;28;20028;-70
2022/04/09 00:12:23;;;;;;;17.90;4.50;;;;;;;3.46;85.46;100382.16;5043331;28;20029;-70
2022/04/09 00:14:48;;;;;;;18.00;4.65;;;;;;;3.43;85.66;100387.97;5044770;28;20124;-69
2022/04/09 00:17:13;;;;;;;25.15;5.00;;;;;;;3.41;85.61;100391.91;5044333;28;20087;-69
2022/04/09 00:19:38;;;;;;;23.08;4.43;;;;;;;3.39;85.68;100394.81;5043952;28;20545;-69
2022/04/09 00:22:04;;;;;;;22.33;4.00;;;;;;;3.42;85.34;100402.56;5042571;28;20031;-70
2022/04/09 00:24:29;;;;;;;21.30;3.92;;;;;;;3.45;85.34;100417.63;5044327;28;20079;-70
2022/04/09 00:26:55;;;;;;;18.92;4.22;;;;;;;3.45;84.70;100407.63;5045033;28;20131;-69
2022/04/09 00:29:20;;;;;;;15.23;3.55;;;;;;;3.46;85.00;100405.75;5027928;28;20029;-69
2022/04/09 00:31:45;;;;;;;16.73;4.60;;;;;;;3.47;84.96;100410.13;5044839;28;20039;-69
2022/04/09 00:34:11;;;;;;;20.92;4.35;;;;;;;3.48;85.06;100426.22;5043147;28;20087;-70
2022/04/09 00:36:36;;;;;;;24.58;4.82;;;;;;;3.50;84.52;100413.31;5044326;28;20165;-69
2022/04/09 00:39:02;;;;;;;24.42;4.75;;;;;;;3.51;84.48;100425.00;5043409;28;20025;-69
2022/04/09 00:41:27;;;;;;;19.15;3.90;;;;;;;3.50;85.10;100428.75;5044075;28;20029;-69
2022/04/09 00:43:52;;;;;;;18.52;4.30;;;;;;;3.49;84.37;100419.75;5044489;28;20033;-70
2022/04/09 00:46:17;;;;;;;17.13;3.72;;;;;;;3.50;84.51;100437.75;5044239;28;20068;-69
2022/04/09 00:48:43;;;;;;;20.27;4.30;;;;;;;3.48;84.73;100438.97;5041866;28;20391;-70
2022/04/09 00:51:09;;;;;;;18.08;3.63;;;;;;;3.44;84.92;100448.53;5042908;28;20029;-69
2022/04/09 00:53:35;;;;;;;16.65;3.85;;;;;;;3.41;84.85;100452.47;5044797;28;20037;-69
2022/04/09 00:56:15;;;;;;;21.23;4.93;;;;;;;3.39;84.84;100459.94;5043037;28;20037;-70
2022/04/09 00:58:47;;;;;;;21.00;3.65;;;;;;;3.38;84.42;100466.44;5042672;28;20036;-69
2022/04/09 01:01:13;;;;;;;18.77;3.65;;;;;;;3.39;84.65;100465.38;5043282;28;20020;-69
2022/04/09 01:03:38;;;;;;;20.08;3.53;;;;;;;3.40;84.51;100461.66;5042877;28;20029;-69
2022/04/09 01:06:08;;;;;;;16.27;3.33;;;;;;;3.39;84.20;100476.25;5042863;28;20094;-69
2022/04/09 01:08:34;;;;;;;20.55;4.32;;;;;;;3.39;84.31;100471.66;5043110;28;20021;-70
2022/04/09 01:10:59;;;;;;;18.52;3.67;;;;;;;3.36;84.19;100469.34;5043017;28;20025;-69
2022/04/09 01:13:24;;;;;;;14.00;3.88;;;;;;;3.34;84.06;100475.97;5044284;28;20053;-69
2022/04/09 01:15:50;;;;;;;17.33;3.63;;;;;;;3.32;84.42;100478.91;5043776;28;20084;-69
2022/04/09 01:18:15;;;;;;;20.42;4.50;;;;;;;3.29;84.44;100483.84;5041078;28;20029;-69
2022/04/09 01:20:41;;;;;;;23.40;3.85;;;;;;;3.26;84.98;100495.13;5043011;28;20418;-69
2022/04/09 01:23:06;;;;;;;22.30;4.15;;;;;;;3.25;84.99;100498.88;5041014;28;20044;-70
2022/04/09 01:25:31;;;;;;;19.00;3.85;;;;;;;3.23;84.87;100500.91;5043956;28;20507;-69
2022/04/09 01:27:57;;;;;;;23.33;4.05;;;;;;;3.18;85.06;100497.94;5042985;28;20586;-69
2022/04/09 01:30:22;;;;;;;16.63;3.65;;;;;;;3.19;85.30;100503.16;5042951;28;20029;-69
2022/04/09 01:32:47;;;;;;;21.35;4.80;;;;;;;3.16;85.34;100516.28;5042495;28;20040;-69
2022/04/09 01:35:13;;;;;;;20.73;4.32;;;;;;;3.18;85.27;100512.34;5043029;28;20029;-69
2022/04/09 01:37:38;;;;;;;17.02;4.43;;;;;;;3.18;85.47;100522.34;5041621;28;20059;-69
2022/04/09 01:40:04;;;;;;;20.90;4.22;;;;;;;3.18;85.72;100525.91;5043174;28;20021;-69
2022/04/09 01:42:29;;;;;;;20.30;4.68;;;;;;;3.18;85.65;100522.34;5042327;28;20104;-69
2022/04/09 01:44:56;;;;;;;19.65;3.65;;;;;;;3.15;85.53;100530.91;5042716;28;20052;-69
2022/04/09 01:47:21;;;;;;;13.60;3.97;;;;;;;3.11;85.76;100533.16;5042055;28;20071;-69
2022/04/09 01:49:46;;;;;;;17.75;3.80;;;;;;;3.07;85.64;100540.81;5041892;28;20021;-69
2022/04/09 01:52:12;;;;;;;21.73;4.20;;;;;;;3.15;85.45;100542.59;5042891;28;20024;-69
2022/04/09 01:54:37;;;;;;;18.58;3.88;;;;;;;3.08;85.52;100549.78;5041377;28;20045;-69
2022/04/09 01:57:03;;;;;;;14.18;3.63;;;;;;;3.04;85.88;100546.63;5042625;28;20075;-69
2022/04/09 01:59:28;;;;;;;23.15;4.05;;;;;;;3.02;85.73;100558.69;5043409;28;20017;-69
2022/04/09 02:01:53;;;;;;;18.55;4.13;;;;;;;2.98;85.60;100557.38;5042886;28;20044;-69
2022/04/09 02:04:19;;;;;;;19.88;4.63;;;;;;;2.93;85.81;100566.06;5040954;28;20098;-69
2022/04/09 02:06:45;;;;;;;18.63;3.50;;;;;;;2.90;85.96;100576.47;5042283;28;20028;-69
2022/04/09 02:09:13;;;;;;;19.55;3.58;;;;;;;2.88;85.95;100571.22;5042517;28;20128;-69
2022/04/09 02:11:40;;;;;;;25.15;3.90;;;;;;;2.86;85.55;100578.72;5042805;28;20052;-69
2022/04/09 02:14:08;;;;;;;20.25;3.92;;;;;;;2.84;85.67;100581.63;5041311;28;20040;-69
2022/04/09 02:16:34;;;;;;;22.65;4.22;;;;;;;2.82;85.72;100580.94;5042739;28;20032;-69
2022/04/09 02:18:59;;;;;;;18.13;3.60;;;;;;;2.82;86.12;100582.81;5041744;28;20352;-69
2022/04/09 02:21:25;;;;;;;22.75;4.40;;;;;;;2.82;85.88;100588.25;5042115;28;20185;-69
2022/04/09 02:23:50;;;;;;;21.58;4.25;;;;;;;2.87;85.82;100599.38;5041267;28;20052;-69
2022/04/09 02:26:15;;;;;;;18.42;3.55;;;;;;;2.89;85.65;100601.91;5041978;28;20098;-69
2022/04/09 02:28:41;;;;;;;19.25;3.47;;;;;;;2.89;85.41;100597.34;5042865;28;20032;-69
2022/04/09 02:31:06;;;;;;;18.50;3.53;;;;;;;2.91;85.30;100605.28;5041374;28;20390;-70
2022/04/09 02:33:32;;;;;;;18.88;4.10;;;;;;;2.91;85.44;100611.53;5042145;28;20029;-69
2022/04/09 02:35:57;;;;;;;17.90;4.45;;;;;;;2.93;84.96;100614.91;5040864;28;20029;-69
2022/04/09 02:38:23;;;;;;;21.48;3.78;;;;;;;2.93;85.20;100620.31;5042039;28;20025;-69
2022/04/09 02:40:48;;;;;;;18.20;3.88;;;;;;;2.91;84.83;100616.13;5042306;28;20037;-69
2022/04/09 02:43:13;;;;;;;18.05;4.10;;;;;;;2.92;84.82;100623.22;5042269;28;20083;-69
2022/04/09 02:45:38;;;;;;;16.80;3.97;;;;;;;2.94;84.79;100623.88;5042670;28;20033;-69
2022/04/09 02:48:04;;;;;;;20.42;3.78;;;;;;;2.96;84.53;100630.81;5040271;28;20439;-69
2022/04/09 02:50:29;;;;;;;13.07;3.17;;;;;;;2.99;84.44;100635.88;5045996;28;20396;-69
2022/04/09 02:52:54;;;;;;;15.23;3.55;;;;;;;3.04;84.30;100635.28;5045815;28;20435;-69
2022/04/09 02:55:20;;;;;;;14.65;3.20;;;;;;;3.09;84.32;100636.44;5044665;28;20045;-69
2022/04/09 02:57:45;;;;;;;12.48;2.65;;;;;;;3.14;83.77;100641.28;5045176;28;20028;-69
2022/04/09 03:00:12;;;;;;;16.73;2.85;;;;;;;3.15;83.66;100642.16;5053452;22;20068;-69
2022/04/09 03:02:39;;;;;;;13.00;2.58;;;;;;;3.16;83.11;100641.97;5028253;28;20125;-69
2022/04/09 03:05:05;;;;;;;11.07;2.60;;;;;;;3.15;83.10;100643.00;5044528;28;20025;-69
2022/04/09 03:07:31;;;;;;;12.52;3.00;;;;;;;3.17;82.96;100649.06;5045592;28;20121;-70
2022/04/09 03:09:56;;;;;;;15.43;3.05;;;;;;;3.18;82.73;100655.31;5046592;28;20111;-69
2022/04/09 03:12:21;;;;;;;14.70;3.08;;;;;;;3.18;82.79;100660.75;5045537;28;20033;-69
2022/04/09 03:14:46;;;;;;;8.38;2.25;;;;;;;3.15;82.52;100672.00;5046122;28;20021;-69
2022/04/09 03:17:12;;;;;;;15.68;2.85;;;;;;;3.13;82.80;100678.44;5044526;28;20421;-69
2022/04/09 03:19:37;;;;;;;13.95;2.60;;;;;;;3.12;82.80;100673.19;5046194;28;20036;-69
2022/04/09 03:22:03;;;;;;;16.23;3.22;;;;;;;3.14;82.41;100681.97;5044869;28;20091;-69
2022/04/09 03:24:29;;;;;;;13.73;3.20;;;;;;;3.15;82.73;100667.41;5046769;28;20712;-69
2022/04/09 03:26:54;;;;;;;15.48;2.60;;;;;;;3.12;82.99;100679.47;5046606;28;20052;-69
2022/04/09 03:29:20;;;;;;;15.48;2.83;;;;;;;3.25;81.96;100676.13;5046199;28;20467;-69
2022/04/09 03:31:45;;;;;;;15.18;3.55;;;;;;;3.15;82.56;100685.56;5045679;28;20368;-69
2022/04/09 03:34:10;;;;;;;12.25;3.88;;;;;;;3.09;82.80;100690.72;5043415;28;20025;-69
2022/04/09 03:36:38;;;;;;;13.50;3.20;;;;;;;3.09;82.82;100690.72;5045594;28;20120;-69
2022/04/09 03:39:03;;;;;;;12.82;3.30;;;;;;;3.08;82.82;100696.31;5045055;28;20570;-69
2022/04/09 03:41:28;;;;;;;12.52;2.95;;;;;;;3.18;82.06;100691.44;5046028;28;20031;-69
2022/04/09 03:43:54;;;;;;;15.10;3.25;;;;;;;3.04;82.85;100687.72;5045367;28;20041;-69
2022/04/09 03:46:19;;;;;;;15.88;3.47;;;;;;;3.03;83.02;100699.56;5045621;28;20033;-69
2022/04/09 03:48:44;;;;;;;12.20;3.13;;;;;;;2.95;82.90;100699.66;5044559;28;20013;-69
2022/04/09 03:51:11;;;;;;;13.77;2.83;;;;;;;2.92;83.57;100708.16;5044748;28;20032;-69
2022/04/09 03:53:36;;;;;;;17.13;3.47;;;;;;;2.84;83.70;100706.38;5045669;28;20024;-69
2022/04/09 03:56:02;;;;;;;11.88;2.50;;;;;;;2.79;84.18;100702.53;5045143;28;20531;-69
2022/04/09 03:58:27;;;;;;;18.77;3.10;;;;;;;2.75;84.62;100707.47;5045402;28;20095;-69
2022/04/09 04:00:53;;;;;;;16.30;3.20;;;;;;;2.68;84.78;100706.50;5044378;28;20547;-69
2022/04/09 04:03:19;;;;;;;14.23;3.38;;;;;;;2.66;85.06;100729.44;5043031;28;20470;-69
2022/04/09 04:05:45;;;;;;;16.45;3.25;;;;;;;2.64;85.23;100729.63;5044278;28;20036;-69
2022/04/09 04:08:11;;;;;;;16.83;3.90;;;;;;;2.60;85.32;100731.84;5044934;28;20021;-69
2022/04/09 04:10:37;;;;;;;17.40;3.85;;;;;;;2.55;85.60;100731.53;5044094;28;20033;-69
2022/04/09 04:13:05;;;;;;;12.30;3.60;;;;;;;2.62;85.25;100734.34;5040992;28;20048;-69
2022/04/09 04:15:30;;;;;;;15.77;4.53;;;;;;;2.57;85.63;100739.47;5044796;28;20391;-69
2022/04/09 04:17:55;;;;;;;16.83;3.63;;;;;;;2.54;85.58;100745.28;5044436;28;20029;-69
2022/04/09 04:20:21;;;;;;;21.30;4.25;;;;;;;2.49;85.85;100748.53;5044414;28;20022;-69
2022/04/09 04:22:46;;;;;;;18.58;3.95;;;;;;;2.49;86.01;100758.53;5045166;28;20032;-69
2022/04/09 04:25:12;;;;;;;18.80;3.83;;;;;;;2.45;86.47;100757.22;5044720;28;20526;-69
2022/04/09 04:27:41;;;;;;;18.60;3.63;;;;;;;2.40;86.30;100770.47;5043910;28;20025;-69
2022/04/09 04:30:08;;;;;;;16.20;4.07;;;;;;;2.36;86.52;100763.69;5044232;28;20058;-69
2022/04/09 04:32:33;;;;;;;17.35;3.90;;;;;;;2.42;86.40;100769.22;5040953;28;20043;-69
2022/04/09 04:34:58;;;;;;;16.80;3.95;;;;;;;2.44;86.16;100767.22;5043454;28;20029;-69
2022/04/09 04:37:23;;;;;;;19.90;4.43;;;;;;;2.45;86.31;100768.88;5044240;28;20653;-70
2022/04/09 04:39:49;;;;;;;17.98;3.30;;;;;;;2.48;86.30;100784.78;5044117;28;20080;-69
2022/04/09 04:42:14;;;;;;;12.43;3.17;;;;;;;2.51;86.17;100784.44;5044098;28;20037;-70
2022/04/09 04:44:39;;;;;;;18.45;3.65;;;;;;;2.53;85.63;100778.81;5044755;28;20041;-69
2022/04/09 04:47:05;;;;;;;14.82;3.63;;;;;;;2.46;86.37;100789.53;5042802;28;20158;-69
2022/04/09 04:49:30;;;;;;;17.50;3.45;;;;;;;2.47;86.06;100793.94;5044028;28;20375;-69
2022/04/09 04:51:56;;;;;;;14.40;3.40;;;;;;;2.47;85.98;100782.25;5044694;28;20029;-69
2022/04/09 04:54:21;;;;;;;14.73;3.95;;;;;;;2.45;86.18;100784.31;5044067;28;20035;-69
2022/04/09 04:56:46;;;;;;;15.63;3.65;;;;;;;2.42;86.33;100792.78;5043387;28;20024;-69
2022/04/09 04:59:11;;;;;;;13.68;3.45;;;;;;;2.39;86.44;100799.44;5025830;28;20028;-69
2022/04/09 05:01:40;;;;;;;17.48;3.63;;;;;;;2.46;86.43;100808.53;5042069;28;20103;-70
2022/04/09 05:04:05;;;;;;;15.80;3.97;;;;;;;2.47;86.27;100803.94;5044342;28;20328;-70
2022/04/09 05:06:31;;;;;;;21.35;3.60;;;;;;;2.49;86.16;100812.75;5043674;28;20021;-70
2022/04/09 05:08:56;;;;;;;16.00;3.78;;;;;;;2.50;86.08;100811.72;5043893;28;20020;-69
2022/04/09 05:11:21;;;;;;;18.92;4.25;;;;;;;2.50;86.04;100818.00;5041908;28;20150;-70
2022/04/09 05:13:47;;;;;;;16.35;4.03;;;;;;;2.59;85.41;100824.22;5044414;28;20024;-69
2022/04/09 05:16:12;;;;;;;16.50;4.32;;;;;;;2.57;85.74;100827.06;5043337;28;20024;-69
2022/04/09 05:18:37;;;;;;;13.23;3.72;;;;;;;2.59;85.30;100835.91;5043152;28;20029;-69
2022/04/09 05:21:03;;;;;;;15.05;3.90;;;;;;;2.61;85.56;100838.41;5042459;28;20367;-70
2022/04/09 05:23:28;;;;;;;16.00;3.38;;;;;;;2.65;85.33;100845.19;5043465;28;20490;-69
2022/04/09 05:25:54;;;;;;;19.48;4.53;;;;;;;2.74;85.61;100849.53;5044359;28;20036;-69
2022/04/09 05:28:20;;;;;;;14.32;3.38;;;;;;;2.92;84.57;100851.94;5044381;28;20028;-69
2022/04/09 05:30:45;;;;;;;15.27;4.28;;;;;;;2.94;84.40;100858.03;5025742;28;20033;-69
2022/04/09 05:33:10;;;;;;;14.85;3.50;;;;;;;3.03;83.80;100865.06;5041914;28;20102;-69
2022/04/09 05:35:36;;;;;;;15.93;4.18;;;;;;;3.03;83.87;100862.34;5043339;28;20108;-69
2022/04/09 05:38:03;;;;;;;15.27;3.60;;;;;;;3.02;83.61;100867.97;5042264;28;20078;-70
2022/04/09 05:40:29;;;;;;;16.42;4.28;;;;;;;3.04;83.35;100874.06;5043041;28;20036;-69
2022/04/09 05:42:54;;;;;;;16.17;4.10;;;;;;;3.04;83.79;100877.63;5044172;28;20033;-69
2022/04/09 05:45:19;;;;;;;18.90;4.40;;;;;;;3.10;82.82;100881.50;5042825;28;20171;-69
2022/04/09 05:47:46;;;;;;;12.35;3.70;;;;;;;3.07;83.11;100881.84;5041193;28;20392;-69
2022/04/09 05:50:12;;;;;;;12.30;3.70;;;;;;;3.05;83.25;100883.91;5038828;28;20143;-69
2022/04/09 05:52:38;;;;;;;11.30;3.80;;;;;;;3.07;83.23;100889.97;5042325;28;20357;-69
2022/04/09 05:55:05;;;;;;;15.38;4.00;;;;;;;3.10;83.24;100895.06;5043552;28;20078;-69
2022/04/09 05:57:31;;;;;;;18.02;4.25;;;;;;;3.10;82.60;100900.50;5043014;28;20032;-69
2022/04/09 05:59:57;;;;;;;15.93;3.20;;;;;;;3.19;82.12;100902.09;5041986;28;20055;-69
2022/04/09 06:02:22;;;;;;;12.85;3.70;;;;;;;3.10;82.28;100904.03;5038214;28;20115;-70
2022/04/09 06:04:47;;;;;;;19.17;3.90;;;;;;;3.11;82.46;100908.44;5040798;28;20021;-71
2022/04/09 06:07:13;;;;;;;16.17;3.30;;;;;;;3.15;82.24;100911.66;5024452;28;20037;-71
2022/04/09 06:09:40;;;;;;;16.95;3.70;;;;;;;3.15;82.72;100917.06;5038597;28;20052;-71
2022/04/09 06:12:07;;;;;;;14.02;3.38;;;;;;;3.22;82.41;100920.75;5033863;28;20130;-71
2022/04/09 06:14:33;;;;;;;14.47;3.87;;;;;;;3.34;82.40;100924.69;5042057;28;20128;-70
2022/04/09 06:16:58;;;;;;;16.35;4.10;;;;;;;3.45;82.53;100928.00;5041803;28;20438;-70
2022/04/09 06:19:23;;;;;;;17.48;4.22;;;;;;;3.62;81.96;100940.44;5043662;28;20025;-70
2022/04/09 06:21:48;;;;;;;15.82;3.85;;;;;;;3.80;81.61;100943.69;5042645;28;20056;-70
2022/04/09 06:24:14;;;;;;;18.55;4.75;;;;;;;3.92;81.72;100951.38;5040993;28;20082;-71
2022/04/09 06:26:39;;;;;;;19.20;4.28;;;;;;;4.01;82.06;100953.00;5042333;28;20313;-71
2022/04/09 06:29:04;;;;;;;15.93;4.55;;;;;;;4.05;82.07;100971.44;5042903;28;20036;-70
2022/04/09 06:31:29;;;;;;;18.83;5.00;;;;;;;4.09;82.50;100967.31;5041951;28;20539;-69
2022/04/09 06:33:55;;;;;;;14.13;4.32;;;;;;;4.09;82.49;100970.03;5041713;28;20060;-70
2022/04/09 06:36:20;;;;;;;17.98;5.00;;;;;;;4.09;82.67;100975.47;5040108;28;20021;-70
2022/04/09 06:38:46;;;;;;;16.10;4.22;;;;;;;4.15;82.19;100974.72;5038339;28;20116;-70
2022/04/09 06:41:11;;;;;;;21.33;4.90;;;;;;;4.19;83.28;100986.09;5041939;28;20029;-70
2022/04/09 06:43:36;;;;;;;16.92;4.07;;;;;;;4.25;83.78;100990.78;5042254;28;20495;-70
2022/04/09 06:46:01;;;;;;;20.05;4.25;;;;;;;4.28;83.69;101005.88;5042604;28;20021;-70
2022/04/09 06:48:27;;;;;;;17.20;5.28;;;;;;;4.27;83.95;101007.75;5042359;28;20028;-70
2022/04/09 06:50:52;;;;;;;15.65;4.00;;;;;;;4.27;84.46;101009.63;5039297;28;20032;-70
2022/04/09 06:53:17;;;;;;;17.45;4.53;;;;;;;4.22;84.25;101003.91;5038955;28;20041;-70
2022/04/09 06:55:43;;;;;;;21.35;5.53;;;;;;;4.15;85.07;101010.06;5035830;28;20468;-70
2022/04/09 06:58:08;;;;;;;17.30;4.15;;;;;;;4.11;85.36;101037.84;5025685;28;20029;-70
2022/04/09 07:00:33;;;;;;;17.63;4.00;;;;;;;4.07;86.11;101050.09;5031220;28;20033;-71
2022/04/09 07:03:00;;;;;;;24.85;5.30;;;;;;;3.96;86.10;101051.38;5038735;28;20024;-70
2022/04/09 07:05:26;;;;;;;17.48;4.05;;;;;;;3.76;85.81;101044.75;5039040;28;20103;-71
2022/04/09 07:07:51;;;;;;;12.32;3.88;;;;;;;3.63;86.21;101046.19;5029078;28;20128;-70
2022/04/09 07:10:16;;;;;;;14.77;4.38;;;;;;;3.56;86.84;101033.50;5039154;28;20116;-69
2022/04/09 07:12:43;;;;;;;14.02;4.18;;;;;;;3.57;87.18;101025.19;5042253;28;20067;-71
2022/04/09 07:15:09;;;;;;;14.60;4.10;;;;;;;3.66;87.18;101039.56;5040341;28;20092;-72
2022/04/09 07:17:34;;;;;;;14.18;4.22;;;;;;;3.72;88.01;101036.09;5039852;28;20394;-72
2022/04/09 07:20:01;;;;;;;20.80;4.93;;;;;;;3.78;87.88;101048.13;5040620;28;20528;-72
2022/04/09 07:22:26;;;;;;;14.02;4.95;;;;;;;3.87;88.15;101034.28;5042055;28;20029;-72
2022/04/09 07:24:52;;;;;;;19.85;5.97;;;;;;;4.08;88.49;101033.59;5042474;28;20033;-73
2022/04/09 07:27:17;;;;;;;17.02;4.90;;;;;;;4.29;88.53;101045.63;5041598;28;20787;-72
2022/04/09 07:29:43;;;;;;;16.58;4.88;;;;;;;4.56;87.22;101042.31;5019379;28;20476;-73
2022/04/09 07:32:08;;;;;;;21.77;5.65;;;;;;;4.67;87.02;101052.72;5037710;28;20060;-73
2022/04/09 07:34:34;;;;;;;13.52;5.30;;;;;;;5.03;87.73;101048.38;5042564;28;20033;-73
2022/04/09 07:36:59;;;;;;;17.30;5.78;;;;;;;6.07;85.68;101036.13;5043273;28;20083;-74
2022/04/09 07:39:24;;;;;;;14.80;5.47;;;;;;;7.41;79.63;101041.34;5044107;28;20502;-73
2022/04/09 07:41:50;;;;;;;17.60;5.78;;;;;;;8.35;74.98;101033.03;5045064;28;20031;-73
2022/04/09 07:44:15;;;;;;;11.27;4.63;;;;;;;8.52;71.71;101039.81;5041880;28;20051;-73
2022/04/09 07:46:40;;;;;;;20.23;4.70;;;;;;;8.80;70.11;101041.44;5044718;28;20033;-73
2022/04/09 07:49:06;;;;;;;11.35;4.43;;;;;;;8.72;69.42;101042.53;5044689;28;20036;-74
2022/04/09 07:51:31;;;;;;;13.48;4.38;;;;;;;8.24;69.54;101045.47;5044827;28;20422;-72
2022/04/09 07:53:56;;;;;;;14.43;4.30;;;;;;;7.71;70.81;101053.63;5045749;28;20048;-70
2022/04/09 07:56:22;;;;;;;13.48;4.45;;;;;;;7.29;73.29;101058.31;5042570;28;20083;-71
2022/04/09 07:58:47;;;;;;;17.95;4.28;;;;;;;6.96;73.93;101060.06;5044770;28;20021;-71
2022/04/09 08:01:13;;;;;;;20.65;4.20;;;;;;;6.75;74.92;101056.38;5043441;28;20037;-70
2022/04/09 08:03:38;;;;;;;14.80;4.30;;;;;;;6.71;77.35;101057.81;5045969;28;20534;-71
2022/04/09 08:06:05;;;;;;;17.63;4.85;;;;;;;6.84;77.72;101059.75;5044550;28;20029;-70
2022/04/09 08:08:31;;;;;;;18.55;4.93;;;;;;;7.05;76.91;101058.84;5045744;28;20372;-71
2022/04/09 08:10:56;;;;;;;18.25;4.60;;;;;;;7.28;76.40;101062.09;5043914;28;20074;-72
2022/04/09 08:13:21;;;;;;;15.15;4.25;;;;;;;7.35;76.07;101066.72;5044237;28;20140;-72
2022/04/09 08:15:47;;;;;;;19.27;6.00;;;;;;;7.41;76.50;101071.41;5042405;28;20029;-73
2022/04/09 08:18:12;;;;;;;19.60;4.72;;;;;;;7.62;74.55;101065.78;5042594;28;20128;-73
2022/04/09 08:20:37;;;;;;;15.20;4.50;;;;;;;7.96;74.65;101063.97;5043069;28;20048;-74
2022/04/09 08:23:04;;;;;;;14.50;4.65;;;;;;;8.25;72.67;101063.56;5043757;28;20021;-72
2022/04/09 08:25:29;;;;;;;15.70;4.40;;;;;;;8.19;70.15;101058.94;5044455;28;20029;-72
2022/04/09 08:27:55;;;;;;;23.05;4.93;;;;;;;8.11;70.26;101061.03;5044390;28;20027;-72
2022/04/09 08:30:22;;;;;;;18.08;4.10;;;;;;;8.37;69.99;101069.28;5043995;28;20098;-72
2022/04/09 08:32:49;;;;;;;18.70;4.72;;;;;;;8.98;68.69;101073.63;5043153;28;20017;-72
2022/04/09 08:35:14;;;;;;;17.20;3.67;;;;;;;9.41;66.43;101084.84;5035176;28;20064;-73
2022/04/09 08:37:41;;;;;;;8.38;2.00;;;;;;;8.78;62.44;101101.06;5043997;28;20063;-73
2022/04/09 08:40:09;;;;;;;6.88;2.97;;;;;;;7.82;65.27;101104.13;5043504;28;20024;-72
2022/04/09 08:42:34;;;;;;;8.55;2.30;;;;;;;7.60;68.14;101102.56;5044017;28;20081;-72
2022/04/09 08:45:01;;;;;;;14.73;2.75;;;;;;;7.98;67.07;101098.25;5043275;28;20112;-71
2022/04/09 08:47:28;;;;;;;9.25;2.35;;;;;;;8.74;66.05;101094.31;5042747;28;20214;-71
2022/04/09 08:49:55;;;;;;;14.35;4.03;;;;;;;9.42;64.44;101100.25;5041380;28;20017;-71
2022/04/09 08:52:21;;;;;;;7.25;2.67;;;;;;;8.98;63.52;101122.94;5043810;28;20086;-71
2022/04/09 08:54:47;;;;;;;7.50;2.72;;;;;;;8.03;63.43;101131.31;5044588;28;20032;-71
2022/04/09 08:57:12;;;;;;;6.68;2.78;;;;;;;7.39;66.67;101134.44;5025324;28;20021;-71
2022/04/09 08:59:38;;;;;;;7.47;2.53;;;;;;;7.05;68.95;101140.78;5044038;28;20048;-70
2022/04/09 09:02:04;;;;;;;8.27;2.50;;;;;;;6.87;69.53;101135.81;5042866;28;20464;-70
2022/04/09 09:04:29;;;;;;;5.90;1.98;;;;;;;6.71;68.42;101138.84;5043813;28;20040;-70
2022/04/09 09:06:54;;;;;;;5.15;1.98;;;;;;;6.42;69.05;101145.31;5043490;28;20052;-70
2022/04/09 09:09:29;;;;;;;6.47;1.98;;;;;;;6.42;69.32;101145.31;5042594;28;20497;-71
2022/04/09 09:11:55;;;;;;;4.65;2.28;;;;;;;6.71;69.62;101139.69;5041124;28;20036;-71
2022/04/09 09:14:25;;;;;;;4.70;1.73;;;;;;;7.98;66.15;101147.50;5042859;28;20031;-73
2022/04/09 09:16:51;;;;;;;5.15;1.70;;;;;;;8.24;64.72;101163.13;5024956;28;20063;-72
2022/04/09 09:19:16;;;;;;;7.28;1.70;;;;;;;8.43;62.37;101157.94;5043527;28;20037;-71
2022/04/09 09:21:51;;;;;;;6.10;1.42;;;;;;;8.14;63.22;101176.34;5039005;28;20102;-71
2022/04/09 09:24:17;;;;;;;5.55;1.65;;;;;;;7.73;64.18;101184.63;5043248;28;20025;-71
2022/04/09 09:26:44;;;;;;;5.05;1.60;;;;;;;6.80;64.70;101186.81;5025868;28;20438;-70
2022/04/09 09:29:13;;;;;;;4.97;1.90;;;;;;;6.27;66.66;101196.38;5042640;28;20027;-70
2022/04/09 09:31:43;;;;;;;5.32;1.67;;;;;;;5.96;66.00;101179.25;5025226;28;20060;-70
2022/04/09 09:34:14;;;;;;;7.47;1.98;;;;;;;5.70;67.69;101177.03;5024138;28;20495;-71
2022/04/09 09:36:42;;;;;;;5.93;1.52;;;;;;;5.77;66.23;101170.81;5004975;28;20025;-71
2022/04/09 09:39:08;;;;;;;3.97;1.42;;;;;;;6.70;65.28;101168.03;5027128;28;20028;-72
2022/04/09 09:41:34;;;;;;;8.30;1.63;;;;;;;9.50;57.22;101149.38;5043618;28;20021;-71
2022/04/09 09:44:05;;;;;;;4.45;1.38;;;;;;;12.29;51.13;101153.22;5043990;28;20033;-71
2022/04/09 09:46:32;;;;;;;3.28;1.30;;;;;;;14.82;43.74;101149.06;5042315;28;20517;-71
2022/04/09 09:48:58;;;;;;;4.95;1.77;;;;;;;16.54;39.97;101155.19;5042983;28;20056;-70
2022/04/09 09:51:24;;;;;;;4.05;1.55;;;;;;;17.61;37.13;101153.19;5043334;28;20079;-70
2022/04/09 09:53:49;;;;;;;6.10;1.90;;;;;;;18.37;38.03;101158.22;5026049;28;20392;-70
2022/04/09 09:56:33;;;;;;;6.75;1.80;;;;;;;18.78;38.75;101155.50;5043337;28;20023;-71
2022/04/09 09:59:00;;;;;;;5.60;2.20;;;;;;;19.12;36.16;101155.78;5042374;28;20111;-71
2022/04/09 10:01:27;;;;;;;8.37;2.27;;;;;;;20.49;34.56;101156.41;5043245;28;20045;-70
2022/04/09 10:03:54;;;;;;;9.18;2.30;;;;;;;21.15;33.40;101153.88;5022969;28;20073;-70
2022/04/09 10:06:20;;;;;;;6.57;2.10;;;;;;;20.53;32.79;101157.47;5042588;28;20032;-72
2022/04/09 10:08:47;;;;;;;7.55;2.20;;;;;;;20.09;34.55;101170.25;5042936;28;20053;-70
2022/04/09 10:11:13;;;;;;;7.45;2.20;;;;;;;20.46;34.90;101157.75;5044883;28;20029;-71
2022/04/09 10:13:43;;;;;;;9.25;2.33;;;;;;;20.83;33.14;101157.22;5042606;28;20420;-69
2022/04/09 10:16:10;;;;;;;10.00;2.45;;;;;;;20.87;31.49;101151.91;5036323;28;20237;-69
2022/04/09 10:18:36;;;;;;;8.80;2.53;;;;;;;17.86;34.80;101158.91;5023400;28;20059;-71
2022/04/09 10:21:02;;;;;;;8.27;2.80;;;;;;;15.31;39.34;101155.63;5022902;28;20299;-70
2022/04/09 10:23:32;;;;;;;10.27;2.97;;;;;;;13.41;42.47;101175.28;5035900;28;20391;-70
2022/04/09 10:25:58;;;;;;;12.70;3.55;;;;;;;14.26;45.25;101166.28;5024009;28;20033;-71
2022/04/09 10:28:34;;;;;;;11.75;2.70;;;;;;;14.35;44.83;101160.38;5042510;28;20056;-72
2022/04/09 10:30:59;;;;;;;10.48;2.28;;;;;;;15.37;42.60;101157.38;5042636;28;20431;-70
2022/04/09 10:33:29;;;;;;;11.32;2.80;;;;;;;16.66;40.84;101158.59;5043908;28;20056;-69
2022/04/09 10:36:01;;;;;;;9.27;2.42;;;;;;;17.52;37.50;101147.31;5043843;28;20116;-69
2022/04/09 10:38:26;;;;;;;9.98;2.47;;;;;;;19.16;36.62;101152.16;5042991;28;20474;-70
2022/04/09 10:40:57;;;;;;;7.43;2.53;;;;;;;20.09;35.53;101158.28;5042535;28;20021;-70
2022/04/09 10:43:25;;;;;;;6.25;1.67;;;;;;;20.08;30.40;101146.28;5033173;28;20462;-70
2022/04/09 10:46:06;;;;;;;6.97;1.75;;;;;;;20.10;31.71;101155.19;5042596;28;20083;-69
2022/04/09 10:48:33;;;;;;;7.60;1.63;;;;;;;20.38;30.80;101161.19;5042716;28;20040;-70
2022/04/09 10:51:04;;;;;;;7.63;2.25;;;;;;;20.85;30.48;101168.13;5042794;28;20025;-71
2022/04/09 10:53:38;;;;;;;8.48;1.83;;;;;;;20.98;28.83;101162.72;5023886;28;20365;-70
2022/04/09 10:56:30;;;;;;;6.90;1.98;;;;;;;20.10;28.95;101166.34;5023710;28;20029;-71
2022/04/09 10:59:28;;;;;;;7.18;1.73;;;;;;;18.12;33.68;101173.72;5043771;28;20021;-71
2022/04/09 11:01:54;;;;;;;6.57;1.65;;;;;;;16.82;32.18;101174.31;5042273;28;20307;-71
2022/04/09 11:04:32;;;;;;;9.40;2.65;;;;;;;16.20;33.99;101179.50;5044623;28;20025;-71
2022/04/09 11:07:10;;;;;;;5.95;1.60;;;;;;;15.92;31.50;101181.41;5042698;28;20036;-72
2022/04/09 11:09:59;;;;;;;7.20;2.67;;;;;;;14.62;37.09;101185.47;5042428;28;20486;-71
2022/04/09 11:12:41;;;;;;;12.00;3.10;;;;;;;15.91;33.89;101179.69;5019849;28;20041;-71
2022/04/09 11:15:11;;;;;;;6.20;1.88;;;;;;;17.21;31.97;101159.34;5046431;28;20013;-71
2022/04/09 11:17:45;;;;;;;5.30;1.67;;;;;;;16.72;32.53;101188.09;5041279;28;20151;-71
2022/04/09 11:20:23;;;;;;;6.10;1.67;;;;;;;16.48;31.95;101179.25;5042783;28;20021;-71
2022/04/09 11:22:54;;;;;;;5.30;1.83;;;;;;;14.81;33.79;101173.09;5042700;28;20274;-70